TimeEST,TemperatureF,Dew PointF,Humidity,Sea Level PressureIn,VisibilityMPH,Wind Direction,Wind SpeedMPH,Gust SpeedMPH,PrecipitationIn,Events,Conditions,WindDirDegrees,DateUTC
12:53 AM,44.1,28.9,55,29.98,10.0,NNW,5.8,-,N/A,,Overcast,330,2012-11-05 05:53:00
1:53 AM,43.0,28.0,56,29.97,10.0,NNW,11.5,18.4,N/A,,Overcast,330,2012-11-05 06:53:00
2:53 AM,42.1,26.1,53,29.97,10.0,NNW,9.2,-,N/A,,Overcast,340,2012-11-05 07:53:00
3:53 AM,41.0,26.1,55,29.96,10.0,NNW,10.4,-,N/A,,Overcast,330,2012-11-05 08:53:00
4:53 AM,41.0,24.8,53,29.97,10.0,North,11.5,19.6,N/A,,Overcast,350,2012-11-05 09:53:00
5:53 AM,39.9,25.0,55,29.98,10.0,North,16.1,24.2,N/A,,Overcast,350,2012-11-05 10:53:00
6:53 AM,39.2,24.8,56,29.99,10.0,North,10.4,-,N/A,,Mostly Cloudy,350,2012-11-05 11:53:00
7:53 AM,39.9,23.0,51,30.01,10.0,NNW,15.0,21.9,N/A,,Mostly Cloudy,340,2012-11-05 12:53:00
8:53 AM,43.0,23.0,45,30.02,10.0,North,13.8,25.3,N/A,,Scattered Clouds,10,2012-11-05 13:53:00
9:53 AM,44.1,23.0,43,30.03,10.0,North,13.8,-,N/A,,Scattered Clouds,350,2012-11-05 14:53:00
10:53 AM,45.0,21.9,40,30.02,10.0,NNW,10.4,19.6,N/A,,Clear,330,2012-11-05 15:53:00
11:53 AM,46.0,21.9,39,30.01,10.0,North,13.8,17.3,N/A,,Scattered Clouds,360,2012-11-05 16:53:00
12:53 PM,46.0,23.0,40,30.00,10.0,NNW,9.2,16.1,N/A,,Scattered Clouds,330,2012-11-05 17:53:00
1:53 PM,46.9,24.1,41,29.99,10.0,NNW,10.4,17.3,N/A,,Scattered Clouds,330,2012-11-05 18:53:00
2:53 PM,46.0,23.0,40,30.01,10.0,North,10.4,-,N/A,,Scattered Clouds,350,2012-11-05 19:53:00
3:53 PM,44.1,23.0,43,30.03,10.0,NW,11.5,-,N/A,,Scattered Clouds,320,2012-11-05 20:53:00
4:53 PM,41.0,21.9,47,30.06,10.0,North,8.1,-,N/A,,Clear,360,2012-11-05 21:53:00
5:53 PM,39.9,21.0,47,30.08,10.0,North,8.1,-,N/A,,Clear,360,2012-11-05 22:53:00
6:53 PM,36.0,21.9,57,30.11,10.0,North,3.5,-,N/A,,Clear,350,2012-11-05 23:53:00
7:53 PM,35.1,21.9,59,30.12,10.0,North,4.6,-,N/A,,Clear,10,2012-11-06 00:53:00
8:53 PM,33.1,21.9,64,30.14,10.0,Calm,Calm,-,N/A,,Clear,0,2012-11-06 01:53:00
9:53 PM,33.1,21.9,64,30.16,10.0,Calm,Calm,-,N/A,,Clear,0,2012-11-06 02:53:00
10:53 PM,36.0,19.9,52,30.17,10.0,NNW,5.8,-,N/A,,Clear,340,2012-11-06 03:53:00
11:53 PM,34.0,19.0,54,30.18,10.0,NNW,3.5,-,N/A,,Clear,340,2012-11-06 04:53:00